Time;durP1;ratioP1;P1;durP2;ratioP2;P2;SDS_P1;SDS_P2;PMS_P1;PMS_P2;Temp;Humidity;BMP_temperature;BMP_pressure;BME280_temperature;BME280_humidity;BME280_pressure;Samples;Min_cycle;Max_cycle;Signal;HPM_P1;HPM_P2
2022/12/29 00:00:02;;;;;;;9.33;8.43;;;;;;;2.02;100.00;146568.28;5071143;28;20195;-67
2022/12/29 00:02:29;;;;;;;26.50;17.17;;;;;;;2.12;100.00;146593.38;5072167;28;20300;-66
2022/12/29 00:04:56;;;;;;;8.93;8.30;;;;;;;2.24;100.00;146623.53;5072239;28;20189;-66
2022/12/29 00:07:23;;;;;;;16.10;14.13;;;;;;;2.33;100.00;146256.66;5072472;28;20642;-67
2022/12/29 00:09:50;;;;;;;23.70;14.17;;;;;;;2.48;100.00;133844.72;5072200;28;20189;-65
2022/12/29 00:12:16;;;;;;;11.93;10.20;;;;;;;2.51;100.00;135153.59;5072249;28;20567;-65
2022/12/29 00:17:43;;;;;;;29.87;18.83;;;;;;;2.47;100.00;141846.03;5010312;28;20194;-65
2022/12/29 00:36:46;;;;;;;13.53;10.40;;;;;;;2.28;100.00;141203.00;5015206;28;20594;-65
2022/12/29 00:44:49;;;;;;;10.23;9.20;;;;;;;2.48;100.00;146682.50;5071674;28;20183;-65
2022/12/29 00:47:17;;;;;;;9.37;8.43;;;;;;;2.51;100.00;146688.75;5071941;28;20635;-65
2022/12/29 00:49:43;;;;;;;9.93;8.33;;;;;;;2.39;100.00;146658.66;5071782;28;20212;-65
2022/12/29 00:52:12;;;;;;;9.83;8.13;;;;;;;2.38;100.00;146656.16;5071759;28;20635;-65
2022/12/29 00:54:40;;;;;;;10.97;8.97;;;;;;;2.30;100.00;146637.31;5071799;28;20224;-65
2022/12/29 00:57:10;;;;;;;9.63;8.67;;;;;;;2.38;100.00;146656.16;5070729;28;20191;-65
2022/12/29 00:59:37;;;;;;;8.67;7.90;;;;;;;2.38;100.00;146656.16;5071379;28;20184;-65
2022/12/29 01:02:04;;;;;;;13.83;10.60;;;;;;;2.39;100.00;146658.66;5071463;28;20189;-66
2022/12/29 01:04:33;;;;;;;11.87;9.60;;;;;;;2.32;100.00;146642.34;5071803;28;20181;-65
2022/12/29 01:07:00;;;;;;;11.97;10.03;;;;;;;2.36;100.00;144535.72;5071677;28;20595;-65
2022/12/29 01:12:12;;;;;;;8.13;7.40;;;;;;;2.37;100.00;145634.28;5071273;28;20176;-65
2022/12/29 01:14:39;;;;;;;7.80;7.07;;;;;;;2.25;100.00;146624.75;5071393;28;20203;-65
2022/12/29 01:17:07;;;;;;;9.73;6.83;;;;;;;2.08;100.00;146582.13;5071630;28;20185;-65
2022/12/29 01:19:35;;;;;;;14.37;8.87;;;;;;;1.82;100.00;146519.31;5071620;28;20187;-66
2022/12/29 01:22:02;;;;;;;48.63;27.80;;;;;;;2.09;100.00;143372.25;5071487;28;20199;-66
2022/12/29 01:24:29;;;;;;;11.80;10.00;;;;;;;1.67;100.00;136551.69;5071671;28;20579;-65
2022/12/29 01:26:56;;;;;;;9.87;9.00;;;;;;;2.03;100.00;137000.03;5071662;28;20640;-66
2022/12/29 01:29:23;;;;;;;9.73;8.70;;;;;;;2.02;100.00;139340.81;5071288;28;20199;-66
2022/12/29 01:31:50;;;;;;;8.90;8.13;;;;;;;2.07;100.00;140351.75;5071554;28;20189;-65
2022/12/29 01:34:17;;;;;;;11.07;8.50;;;;;;;1.91;100.00;139502.91;5071661;28;20620;-65
2022/12/29 01:36:45;;;;;;;11.93;8.10;;;;;;;2.08;100.00;138781.84;5071622;28;20203;-65
2022/12/29 01:39:12;;;;;;;10.23;7.73;;;;;;;1.94;100.00;144085.09;5071628;28;20185;-65
2022/12/29 01:41:39;;;;;;;9.93;8.97;;;;;;;2.00;100.00;143357.84;5071723;28;20670;-65
2022/12/29 01:44:39;;;;;;;9.63;8.70;;;;;;;1.80;100.00;140933.09;5071747;28;20208;-66
2022/12/29 01:47:06;;;;;;;10.73;9.73;;;;;;;1.95;100.00;138048.59;5071226;28;20189;-65
2022/12/29 01:49:33;;;;;;;13.47;12.07;;;;;;;1.91;100.00;128054.66;5071583;28;20207;-65
2022/12/29 01:52:04;;;;;;;8.97;8.27;;;;;;;1.99;100.00;124268.09;5071124;28;20216;-65
2022/12/29 01:54:37;;;;;;;11.53;8.87;;;;;;;1.97;100.00;129518.91;5071360;28;20185;-65
2022/12/29 01:57:08;;;;;;;24.40;13.83;;;;;;;1.88;100.00;133187.69;5071323;28;20632;-67
2022/12/29 01:59:39;;;;;;;17.57;12.70;;;;;;;1.91;100.00;122943.06;5071229;28;20193;-67
2022/12/29 02:02:08;;;;;;;29.90;18.37;;;;;;;1.97;100.00;116428.63;5071224;28;20189;-66
2022/12/29 02:04:36;;;;;;;48.23;26.13;;;;;;;2.03;100.00;114157.41;5070967;28;20215;-65
2022/12/29 02:07:09;;;;;;;21.33;14.17;;;;;;;2.12;100.00;107662.56;5070752;28;20284;-65
2022/12/29 02:09:36;;;;;;;17.17;13.67;;;;;;;2.09;100.00;113192.38;5073348;28;20185;-66
2022/12/29 02:12:04;;;;;;;31.50;18.17;;;;;;;2.02;100.00;123620.81;5074789;28;20193;-65
2022/12/29 02:14:31;;;;;;;27.67;17.20;;;;;;;1.88;100.00;121630.34;5074593;28;20187;-65
2022/12/29 02:17:11;;;;;;;33.27;20.20;;;;;;;1.88;100.00;116736.72;5074844;28;20215;-66
2022/12/29 02:20:10;;;;;;;32.33;19.07;;;;;;;1.78;100.00;109877.72;5074511;28;20185;-65
2022/12/29 02:22:49;;;;;;;30.53;19.33;;;;;;;1.69;100.00;111813.41;5074402;28;20188;-65
2022/12/29 02:25:56;;;;;;;27.30;19.63;;;;;;;1.66;100.00;112783.34;5074311;28;20185;-67
2022/12/29 02:28:58;;;;;;;34.07;19.57;;;;;;;1.60;100.00;103343.06;5074612;28;20721;-65
2022/12/29 02:31:32;;;;;;;28.17;17.97;;;;;;;1.36;100.00;92930.91;5042689;28;20191;-65
2022/12/29 02:34:07;;;;;;;29.13;17.20;;;;;;;1.47;100.00;80993.38;5074552;28;20658;-66
2022/12/29 02:36:44;;;;;;;29.33;17.23;;;;;;;1.51;100.00;76164.06;5074303;28;20208;-66
2022/12/29 02:39:21;;;;;;;28.53;17.70;;;;;;;1.57;100.00;72308.56;5074186;28;20195;-65
2022/12/29 02:42:00;;;;;;;26.67;16.60;;;;;;;1.58;100.00;69736.56;5074211;28;20185;-64
2022/12/29 02:44:35;;;;;;;13.87;11.37;;;;;;;1.67;100.00;67497.09;5073965;28;20300;-65
2022/12/29 02:47:10;;;;;;;21.47;14.10;;;;;;;1.69;100.00;65251.09;5074038;28;20295;-65
2022/12/29 02:49:45;;;;;;;15.17;13.13;;;;;;;1.84;100.00;64303.91;5074384;28;20177;-65
2022/12/29 02:52:17;;;;;;;13.50;12.10;;;;;;;1.70;100.00;64464.41;5074371;28;20563;-65
2022/12/29 02:54:43;;;;;;;19.10;13.60;;;;;;;1.46;100.00;64101.00;5073729;28;20188;-65
2022/12/29 02:57:13;;;;;;;12.67;11.00;;;;;;;2.01;100.00;58850.47;5074105;28;20193;-65
2022/12/29 02:59:40;;;;;;;17.03;12.87;;;;;;;2.14;100.00;55933.22;5073681;28;20563;-67
2022/12/29 03:02:30;;;;;;;21.43;12.10;;;;;;;1.76;100.00;61396.13;5073753;28;20199;-65
2022/12/29 03:05:33;;;;;;;23.37;12.33;;;;;;;2.05;100.00;65165.75;5073691;28;20201;-66
2022/12/29 03:08:07;;;;;;;10.97;9.63;;;;;;;2.10;100.00;61103.91;5069984;28;20199;-66
2022/12/29 03:10:41;;;;;;;22.17;10.50;;;;;;;2.16;100.00;59261.88;5073485;28;20181;-66
2022/12/29 03:16:09;;;;;;;12.47;11.23;;;;;;;2.05;100.00;68149.00;5073675;28;20184;-65
2022/12/29 03:18:45;;;;;;;18.10;11.73;;;;;;;2.09;100.00;70773.78;5073746;28;20187;-65
2022/12/29 03:21:17;;;;;;;15.93;9.20;;;;;;;1.98;100.00;65574.00;5072684;28;20185;-67
2022/12/29 03:23:48;;;;;;;10.83;9.30;;;;;;;2.23;100.00;60468.13;5073632;28;20208;-67
2022/12/29 03:26:18;;;;;;;15.80;9.33;;;;;;;2.29;100.00;61688.03;5073314;28;20184;-65
2022/12/29 03:28:51;;;;;;;9.73;7.93;;;;;;;2.40;100.00;62186.16;5073006;28;20292;-65
2022/12/29 03:31:20;;;;;;;10.87;8.17;;;;;;;2.52;100.00;58729.19;5073424;28;20215;-65
2022/12/29 03:33:49;;;;;;;8.67;7.97;;;;;;;2.38;100.00;68423.72;5073516;28;20192;-66
2022/12/29 03:36:23;;;;;;;18.10;8.20;;;;;;;2.40;100.00;76635.22;5073440;28;20659;-65
2022/12/29 03:38:56;;;;;;;7.53;6.90;;;;;;;2.22;100.00;85824.38;5073192;28;20275;-65
2022/12/29 03:41:29;;;;;;;7.83;6.67;;;;;;;2.24;100.00;88061.50;5072880;28;20192;-66
2022/12/29 03:43:56;;;;;;;8.53;5.70;;;;;;;2.27;100.00;88071.09;5072774;28;20211;-66
2022/12/29 03:46:23;;;;;;;16.70;7.13;;;;;;;2.24;100.00;85160.41;5073063;28;20192;-66
2022/12/29 03:48:51;;;;;;;13.13;6.10;;;;;;;2.34;100.00;80793.06;5072816;28;20192;-66
2022/12/29 03:51:18;;;;;;;6.00;5.70;;;;;;;2.44;100.00;75098.28;5072631;28;20188;-66
2022/12/29 03:53:45;;;;;;;6.50;6.03;;;;;;;2.47;100.00;74561.16;5073028;28;20181;-66
2022/12/29 03:56:12;;;;;;;6.10;5.60;;;;;;;2.51;100.00;74833.38;5072696;28;20196;-65
2022/12/29 03:58:38;;;;;;;7.70;5.60;;;;;;;2.46;100.00;79773.38;5072890;28;20555;-65
2022/12/29 04:01:05;;;;;;;6.80;6.00;;;;;;;2.36;100.00;84423.72;5072537;28;20215;-65
2022/12/29 04:03:32;;;;;;;7.27;5.97;;;;;;;2.42;100.00;73230.00;5072739;28;20207;-65
2022/12/29 04:06:00;;;;;;;8.93;5.80;;;;;;;2.37;100.00;65396.75;5072525;28;20191;-67
2022/12/29 04:08:27;;;;;;;9.33;5.77;;;;;;;2.26;100.00;61288.97;5072249;28;20189;-65
2022/12/29 04:10:54;;;;;;;19.00;6.43;;;;;;;2.24;100.00;60553.94;5072511;28;20563;-65
2022/12/29 04:13:21;;;;;;;16.50;11.90;;;;;;;2.32;100.00;52090.03;5072254;28;20181;-65
2022/12/29 04:15:48;;;;;;;28.03;7.57;;;;;;;2.20;100.00;48743.75;5072373;28;20671;-66
2022/12/29 04:18:15;;;;;;;27.77;11.10;;;;;;;2.33;100.00;42426.56;5072185;28;20185;-67
2022/12/29 04:21:02;;;;;;;15.30;8.63;;;;;;;2.23;100.00;42956.16;5071971;28;20189;-67
2022/12/29 04:23:31;;;;;;;21.23;12.70;;;;;;;2.30;100.00;45699.78;5072590;28;20604;-66
2022/12/29 04:25:59;;;;;;;17.07;9.00;;;;;;;2.37;100.00;46983.56;5072193;28;20189;-67
2022/12/29 04:28:25;;;;;;;20.23;10.57;;;;;;;2.23;100.00;49784.06;5071940;28;20228;-67
2022/12/29 04:30:52;;;;;;;26.33;8.80;;;;;;;2.24;100.00;53401.38;5071955;28;20191;-66
2022/12/29 04:33:20;;;;;;;23.90;8.87;;;;;;;2.33;100.00;55700.31;5072261;28;20657;-66
2022/12/29 04:35:47;;;;;;;17.53;9.30;;;;;;;2.25;100.00;59778.13;5072335;28;20196;-67
2022/12/29 04:38:14;;;;;;;20.53;8.93;;;;;;;2.28;100.00;61293.63;5071819;28;20195;-66
2022/12/29 04:40:43;;;;;;;16.13;9.90;;;;;;;2.20;100.00;62612.25;5072230;28;20215;-65
2022/12/29 04:43:10;;;;;;;32.20;11.20;;;;;;;2.11;100.00;64565.00;5071834;28;20185;-65
2022/12/29 04:45:37;;;;;;;32.43;12.07;;;;;;;2.08;100.00;65169.16;5071860;28;20181;-65
2022/12/29 04:48:05;;;;;;;19.77;11.90;;;;;;;2.07;100.00;63707.16;5071846;28;20200;-66
2022/12/29 04:50:32;;;;;;;32.37;12.13;;;;;;;2.10;100.00;62821.63;5071721;28;20196;-66
2022/12/29 04:52:59;;;;;;;12.53;9.27;;;;;;;2.17;100.00;61755.97;5072211;28;20555;-67
2022/12/29 04:55:25;;;;;;;18.20;10.10;;;;;;;2.15;100.00;60700.44;5071949;28;20653;-66
2022/12/29 04:57:54;;;;;;;19.63;8.27;;;;;;;2.24;100.00;62902.69;5071855;28;20201;-66
2022/12/29 05:00:21;;;;;;;25.80;11.60;;;;;;;2.03;100.00;69509.38;5071692;28;20193;-66
2022/12/29 05:02:48;;;;;;;19.17;11.77;;;;;;;2.03;100.00;70997.78;5071568;28;20181;-66
2022/12/29 05:05:15;;;;;;;18.77;10.53;;;;;;;1.74;100.00;66566.31;5071651;28;20200;-65
2022/12/29 05:07:42;;;;;;;32.40;12.43;;;;;;;1.56;100.00;58074.34;5071682;28;20239;-66
2022/12/29 05:10:09;;;;;;;23.17;10.53;;;;;;;1.57;100.00;52522.41;5072090;28;20207;-66
2022/12/29 05:12:38;;;;;;;25.43;11.13;;;;;;;1.53;100.00;48330.31;5072058;28;20655;-67
2022/12/29 05:15:08;;;;;;;23.00;9.70;;;;;;;1.56;100.00;45934.97;5071854;28;20188;-65
2022/12/29 05:17:35;;;;;;;27.63;10.33;;;;;;;1.50;100.00;43277.03;5072204;28;20204;-66
2022/12/29 05:20:02;;;;;;;26.87;10.13;;;;;;;1.60;100.00;42452.28;5071463;28;20208;-65
2022/12/29 05:22:29;;;;;;;43.37;12.13;;;;;;;1.75;100.00;41760.72;5071848;28;20181;-65
2022/12/29 05:24:56;;;;;;;24.00;10.60;;;;;;;1.76;100.00;41831.59;5070878;28;20187;-66
2022/12/29 05:27:23;;;;;;;18.03;9.03;;;;;;;1.80;100.00;44013.16;5071602;28;20247;-67
2022/12/29 05:29:50;;;;;;;25.83;11.23;;;;;;;1.89;100.00;42226.88;5072161;28;20181;-66
2022/12/29 05:32:18;;;;;;;17.27;9.77;;;;;;;1.79;100.00;40490.75;5072256;28;20199;-66
2022/12/29 05:34:45;;;;;;;40.60;13.40;;;;;;;1.85;100.00;40123.50;5071274;28;20220;-66
2022/12/29 05:37:12;;;;;;;42.43;12.60;;;;;;;1.92;100.00;41578.88;5075649;28;20544;-69
2022/12/29 05:39:40;;;;;;;32.10;10.63;;;;;;;2.02;100.00;41257.19;5077814;28;20196;-67
2022/12/29 05:42:06;;;;;;;21.23;8.80;;;;;;;2.18;100.00;34824.59;5075521;28;20189;-66
2022/12/29 05:44:33;;;;;;;34.07;15.93;;;;;;;2.11;100.00;36450.47;5078485;28;20196;-66
2022/12/29 05:47:00;;;;;;;36.50;15.03;;;;;;;2.11;100.00;40306.53;5078455;28;20198;-66
2022/12/29 05:49:28;;;;;;;17.67;10.77;;;;;;;2.20;100.00;36500.84;5079001;28;20184;-66
2022/12/29 05:51:55;;;;;;;21.70;12.40;;;;;;;2.41;100.00;32422.13;5076437;28;20552;-64
2022/12/29 05:54:22;;;;;;;31.00;16.53;;;;;;;2.67;100.00;25689.19;5075892;28;20288;-65
2022/12/29 05:56:49;;;;;;;36.10;17.63;;;;;;;2.86;100.00;24855.78;5075971;28;20568;-66
2022/12/29 05:59:16;;;;;;;31.27;14.93;;;;;;;2.97;100.00;25782.91;5075242;28;20207;-66
2022/12/29 06:01:42;;;;;;;53.20;19.37;;;;;;;2.95;100.00;29795.16;5075372;28;20188;-66
2022/12/29 06:04:09;;;;;;;33.90;20.43;;;;;;;3.06;100.00;30975.88;5075464;28;20185;-65
2022/12/29 06:06:38;;;;;;;36.73;19.37;;;;;;;3.32;100.00;30800.63;5075190;28;20191;-65
2022/12/29 06:09:05;;;;;;;36.00;15.83;;;;;;;3.57;100.00;31148.69;5074663;28;20195;-65
2022/12/29 06:11:32;;;;;;;29.30;16.70;;;;;;;3.78;100.00;33354.22;5075093;28;20211;-65
2022/12/29 06:13:59;;;;;;;29.73;15.77;;;;;;;3.95;100.00;48841.84;5074613;28;20212;-65
2022/12/29 06:16:26;;;;;;;41.53;16.70;;;;;;;4.07;100.00;55298.00;5074694;28;20193;-65
2022/12/29 06:18:53;;;;;;;29.27;18.03;;;;;;;4.23;100.00;62903.56;5074947;28;20192;-65
2022/12/29 06:21:20;;;;;;;37.53;16.60;;;;;;;4.51;100.00;65741.41;5074404;28;20180;-66
2022/12/29 06:23:48;;;;;;;44.23;17.90;;;;;;;5.10;100.00;66866.88;5074347;28;20188;-66
2022/12/29 06:26:15;;;;;;;38.17;18.43;;;;;;;5.48;100.00;80395.03;5074794;28;20276;-66
2022/12/29 06:28:42;;;;;;;47.43;19.87;;;;;;;6.00;100.00;111473.41;5074472;28;20232;-67
2022/12/29 06:31:10;;;;;;;30.60;17.70;;;;;;;6.57;100.00;131688.88;5074182;28;20185;-67
2022/12/29 06:33:37;;;;;;;23.73;17.63;;;;;;;7.01;100.00;147808.38;5074431;28;20184;-66
2022/12/29 06:36:04;;;;;;;38.23;18.90;;;;;;;7.46;100.00;147920.59;5074191;28;20236;-66
2022/12/29 06:38:31;;;;;;;50.90;20.20;;;;;;;7.67;100.00;147974.81;5074302;28;20192;-66
2022/12/29 06:40:59;;;;;;;32.83;16.60;;;;;;;7.95;100.00;148042.91;5074683;28;20185;-66
2022/12/29 06:43:26;;;;;;;17.93;10.80;;;;;;;8.47;100.00;148174.16;5074029;28;20188;-65
2022/12/29 06:45:53;;;;;;;31.47;16.17;;;;;;;8.85;100.00;148267.56;5074561;28;20276;-67
2022/12/29 06:48:20;;;;;;;28.50;14.50;;;;;;;9.33;100.00;148388.78;5074068;28;20267;-66
2022/12/29 06:50:46;;;;;;;32.27;15.37;;;;;;;10.05;100.00;148568.13;5074128;28;20563;-66
2022/12/29 06:53:13;;;;;;;46.43;18.10;;;;;;;10.53;100.00;148688.19;5073651;28;20197;-66
2022/12/29 06:55:40;;;;;;;47.67;18.40;;;;;;;10.98;100.00;148800.75;5072453;28;20216;-68
2022/12/29 06:58:09;;;;;;;51.30;15.07;;;;;;;11.35;100.00;148893.06;5073860;28;20196;-67
2022/12/29 07:00:36;;;;;;;46.30;17.43;;;;;;;11.77;100.00;148998.09;5073511;28;20254;-67
2022/12/29 07:03:03;;;;;;;52.77;19.93;;;;;;;12.41;100.00;149157.56;5073618;28;20181;-66
2022/12/29 07:05:32;;;;;;;53.33;20.33;;;;;;;12.86;100.00;149271.50;5072217;28;20212;-66
2022/12/29 07:07:59;;;;;;;51.73;20.20;;;;;;;13.27;100.00;149375.44;5073511;28;20184;-66
2022/12/29 07:10:26;;;;;;;58.80;22.97;;;;;;;14.12;100.00;149587.03;5072309;28;20238;-66
2022/12/29 07:12:55;;;;;;;76.10;24.80;;;;;;;14.98;100.00;149803.88;5073175;28;20188;-66
2022/12/29 07:15:23;;;;;;;29.00;14.20;;;;;;;15.97;100.00;150052.66;5073483;28;20666;-66
2022/12/29 07:17:50;;;;;;;47.00;17.60;;;;;;;16.04;94.85;150067.91;5073378;28;20575;-67
2022/12/29 07:20:17;;;;;;;68.67;22.07;;;;;;;16.81;93.91;150263.47;5073227;28;20185;-66
2022/12/29 07:22:44;;;;;;;13.63;8.50;;;;;;;17.53;88.12;150443.88;5073300;28;20204;-66
2022/12/29 07:25:11;;;;;;;32.10;13.30;;;;;;;18.12;86.01;150591.41;5073265;28;20622;-67
2022/12/29 07:27:38;;;;;;;46.57;18.20;;;;;;;18.83;80.45;150769.47;5073055;28;20606;-66
2022/12/29 07:30:05;;;;;;;47.00;15.17;;;;;;;18.72;75.75;150742.72;5073006;28;20189;-66
2022/12/29 07:32:35;;;;;;;42.23;15.90;;;;;;;18.64;74.98;150723.66;5073234;28;20712;-66
2022/12/29 07:35:02;;;;;;;16.17;7.80;;;;;;;18.68;77.83;150733.84;5072671;28;20591;-65
2022/12/29 07:37:29;;;;;;;11.43;7.17;;;;;;;18.64;75.44;150723.66;5073343;28;20197;-67
2022/12/29 07:39:55;;;;;;;15.77;8.17;;;;;;;19.02;73.15;150819.06;5073517;28;20617;-66
2022/12/29 07:42:23;;;;;;;16.13;8.73;;;;;;;19.00;74.40;150812.72;5073137;28;20534;-66
2022/12/29 07:44:49;;;;;;;29.03;8.17;;;;;;;19.72;70.28;150993.47;5072810;28;20586;-65
2022/12/29 07:47:16;;;;;;;26.30;8.57;;;;;;;19.92;66.19;151044.38;5072888;28;20565;-66
2022/12/29 07:49:45;;;;;;;10.73;3.77;;;;;;;20.63;63.43;151223.94;5072559;28;20207;-66
2022/12/29 07:52:11;;;;;;;30.83;13.70;;;;;;;21.00;61.02;151316.97;5072928;28;20556;-66
2022/12/29 07:54:38;;;;;;;38.70;16.05;;;;;;;21.23;58.63;151375.59;5072451;28;20209;-66
2022/12/29 07:57:05;;;;;;;91.93;30.27;;;;;;;21.10;56.31;151341.13;5072348;28;20185;-66
2022/12/29 07:59:32;;;;;;;128.57;36.33;;;;;;;20.74;56.58;151252.00;5071480;28;20196;-65
2022/12/29 08:01:59;;;;;;;134.80;39.10;;;;;;;21.80;54.90;151519.63;5072232;28;20219;-65
2022/12/29 08:04:26;;;;;;;61.17;25.33;;;;;;;21.87;52.07;151536.19;5072474;28;20626;-65
2022/12/29 08:06:54;;;;;;;74.20;26.52;;;;;;;22.04;52.85;151578.28;5072211;28;20188;-65
2022/12/29 08:09:21;;;;;;;73.28;24.27;;;;;;;21.78;52.37;151513.22;5072570;28;20584;-66
2022/12/29 08:11:48;;;;;;;42.13;16.35;;;;;;;21.52;54.06;151446.94;5072043;28;20185;-65
2022/12/29 08:14:15;;;;;;;35.42;14.40;;;;;;;20.60;57.27;151215.03;5072427;28;20639;-65
2022/12/29 08:16:42;;;;;;;11.90;8.63;;;;;;;20.66;57.71;151231.63;5072069;28;20185;-66
2022/12/29 08:19:11;;;;;;;32.28;12.80;;;;;;;21.47;57.00;151434.25;5072252;28;20505;-66
2022/12/29 08:21:38;;;;;;;66.40;36.58;;;;;;;22.20;53.62;151620.38;5072192;28;20572;-65
2022/12/29 08:24:07;;;;;;;90.85;59.05;;;;;;;22.30;53.30;151644.59;5071664;28;20180;-66
2022/12/29 08:26:34;;;;;;;16.17;10.90;;;;;;;21.22;56.69;151373.03;5071902;28;20189;-66
2022/12/29 08:29:01;;;;;;;17.88;10.32;;;;;;;21.35;57.60;151404.91;5071636;28;20610;-66
2022/12/29 08:31:28;;;;;;;18.95;7.78;;;;;;;21.90;53.74;151543.81;5071683;28;20200;-65
2022/12/29 08:33:55;;;;;;;15.82;9.73;;;;;;;21.41;54.32;151421.50;5071723;28;20215;-66
2022/12/29 08:36:22;;;;;;;5.65;5.07;;;;;;;21.52;55.40;151446.94;5072028;28;20224;-65
2022/12/29 08:38:49;;;;;;;4.78;4.47;;;;;;;21.35;56.00;151406.16;5070867;28;20200;-65
2022/12/29 08:41:17;;;;;;;3.50;3.20;;;;;;;21.71;54.54;151495.41;5071558;28;20192;-65
2022/12/29 08:43:47;;;;;;;7.40;4.15;;;;;;;20.47;58.83;151184.47;5070448;28;20181;-66
2022/12/29 08:46:14;;;;;;;13.68;5.00;;;;;;;21.81;55.59;151520.91;5071552;28;20185;-65
2022/12/29 08:48:43;;;;;;;6.13;5.55;;;;;;;21.66;55.05;151483.94;5071825;28;20181;-66
2022/12/29 08:51:10;;;;;;;6.50;6.03;;;;;;;22.10;53.41;151593.63;5071706;28;20185;-65
2022/12/29 08:53:37;;;;;;;6.38;5.97;;;;;;;22.25;52.78;151631.84;5071762;28;20189;-65
2022/12/29 08:56:05;;;;;;;6.30;5.90;;;;;;;22.91;50.30;151799.00;5071212;28;20231;-65
2022/12/29 08:58:33;;;;;;;5.35;4.95;;;;;;;23.37;50.01;151913.81;5071777;28;20188;-65
2022/12/29 09:01:00;;;;;;;7.40;6.53;;;;;;;23.80;47.94;152023.63;5071830;28;20537;-65
2022/12/29 09:03:28;;;;;;;9.02;6.82;;;;;;;23.18;49.40;151867.84;5071762;28;20192;-66
2022/12/29 09:05:56;;;;;;;5.30;4.90;;;;;;;23.50;48.44;151947.03;5071532;28;20181;-65
2022/12/29 09:08:23;;;;;;;9.52;7.07;;;;;;;24.79;45.65;152273.91;5071620;28;20650;-64
2022/12/29 09:10:51;;;;;;;5.90;5.40;;;;;;;24.66;45.19;152239.41;5071892;28;20185;-65
2022/12/29 09:13:20;;;;;;;14.15;6.90;;;;;;;23.72;47.72;152003.16;5071312;28;20184;-65
2022/12/29 09:15:48;;;;;;;5.28;4.80;;;;;;;22.89;49.46;151793.88;5071907;28;20289;-66
2022/12/29 09:18:15;;;;;;;4.53;4.18;;;;;;;23.23;48.69;151879.34;5071169;28;20189;-66
2022/12/29 09:20:42;;;;;;;11.32;6.78;;;;;;;25.26;45.06;152391.47;5075657;28;20193;-65
2022/12/29 09:23:09;;;;;;;5.80;5.40;;;;;;;25.16;44.28;152365.94;5075258;28;20184;-65
2022/12/29 09:25:35;;;;;;;7.18;5.93;;;;;;;25.40;43.84;152427.25;5087360;28;20211;-63
2022/12/29 09:28:07;;;;;;;4.95;4.03;;;;;;;25.65;42.58;152489.91;5095565;28;20250;-64
2022/12/29 09:30:34;;;;;;;8.35;5.40;;;;;;;26.20;41.64;152629.28;5095381;28;20188;-65
2022/12/29 09:33:02;;;;;;;5.97;5.43;;;;;;;25.27;42.78;152394.03;5095456;28;20603;-65
2022/12/29 09:35:29;;;;;;;4.35;4.05;;;;;;;24.42;44.66;152179.41;5095576;28;20278;-64
2022/12/29 09:37:56;;;;;;;4.55;4.25;;;;;;;24.61;43.79;152226.66;5095086;28;20184;-65
2022/12/29 09:40:30;;;;;;;4.68;4.40;;;;;;;24.18;45.34;152118.13;5095156;28;20192;-65
2022/12/29 09:43:19;;;;;;;6.60;5.22;;;;;;;24.83;44.31;152284.13;5095111;28;20280;-64
2022/12/29 09:45:48;;;;;;;4.70;4.40;;;;;;;24.48;44.82;152194.75;5095289;28;20184;-65
2022/12/29 09:48:21;;;;;;;5.47;4.97;;;;;;;23.98;46.70;152068.25;5095245;28;20187;-64
2022/12/29 09:50:53;;;;;;;4.40;4.07;;;;;;;25.26;43.72;152391.47;5094077;28;20183;-65
2022/12/29 09:53:26;;;;;;;5.85;5.13;;;;;;;24.45;44.96;152187.06;5094815;28;20203;-65
2022/12/29 09:55:56;;;;;;;4.88;4.45;;;;;;;23.62;46.73;151977.66;5095202;28;20693;-64
2022/12/29 09:58:30;;;;;;;4.60;4.22;;;;;;;23.38;47.68;151917.59;5094824;28;20199;-65
2022/12/29 10:01:04;;;;;;;9.02;4.88;;;;;;;24.58;45.19;152220.25;5094899;28;20291;-66
2022/12/29 10:03:46;;;;;;;4.13;3.92;;;;;;;23.69;46.61;151995.50;5094857;28;20654;-64
2022/12/29 10:06:18;;;;;;;4.60;4.30;;;;;;;24.23;45.31;152130.91;5095326;28;20183;-65
2022/12/29 10:08:53;;;;;;;4.93;4.65;;;;;;;24.14;45.83;152109.16;5094984;28;20290;-65
2022/12/29 10:11:32;;;;;;;5.47;5.22;;;;;;;25.51;42.94;152455.34;5094242;28;20179;-65
2022/12/29 10:14:21;;;;;;;16.70;13.27;;;;;;;24.62;44.60;152230.47;5094407;28;20673;-64
2022/12/29 10:16:58;;;;;;;17.95;12.43;;;;;;;24.21;45.60;152125.78;5092524;28;20332;-65
2022/12/29 10:19:56;;;;;;;6.55;6.10;;;;;;;24.39;44.68;152173.03;5092077;28;20191;-64
2022/12/29 10:22:36;;;;;;;12.07;6.85;;;;;;;24.02;46.62;152079.75;5091536;28;20203;-65
2022/12/29 10:25:09;;;;;;;8.77;6.50;;;;;;;23.35;47.73;151908.69;5091692;28;20227;-64
2022/12/29 10:27:37;;;;;;;6.10;5.55;;;;;;;23.74;47.29;152008.28;5093003;28;20655;-65
2022/12/29 10:30:04;;;;;;;6.03;5.40;;;;;;;24.18;46.59;152119.41;5093302;28;20295;-65
2022/12/29 10:32:36;;;;;;;5.20;4.93;;;;;;;24.64;44.37;152235.59;5094045;28;20184;-66
2022/12/29 10:35:11;;;;;;;5.78;5.13;;;;;;;24.26;45.20;152139.84;5094470;28;20215;-66
2022/12/29 10:37:46;;;;;;;5.38;5.07;;;;;;;25.83;42.63;152535.94;5093963;28;20192;-64
2022/12/29 10:40:20;;;;;;;5.53;5.22;;;;;;;25.99;42.06;152575.56;5094339;28;20190;-64
2022/12/29 10:42:52;;;;;;;5.95;5.50;;;;;;;26.75;40.39;152769.94;5093811;28;20215;-64
2022/12/29 10:45:22;;;;;;;5.75;5.25;;;;;;;26.65;39.93;152743.13;5094061;28;20176;-64
2022/12/29 10:47:55;;;;;;;5.75;5.25;;;;;;;25.98;40.78;152574.28;5094285;28;20192;-64
2022/12/29 10:50:24;;;;;;;7.43;5.57;;;;;;;25.56;42.12;152468.19;5093644;28;20184;-64
2022/12/29 10:52:52;;;;;;;7.20;6.70;;;;;;;25.82;41.57;152534.66;5094170;28;20184;-63
2022/12/29 10:55:23;;;;;;;5.70;5.28;;;;;;;26.39;40.27;152677.91;5094173;28;20180;-64
2022/12/29 10:57:50;;;;;;;8.10;6.93;;;;;;;27.62;38.84;152990.09;5093954;28;20188;-64
2022/12/29 11:00:20;;;;;;;6.85;6.25;;;;;;;26.92;38.92;152810.91;5093399;28;20188;-64
2022/12/29 11:03:22;;;;;;;5.82;5.38;;;;;;;26.25;39.75;152642.09;5093981;28;20207;-65
2022/12/29 11:05:57;;;;;;;5.50;5.30;;;;;;;27.12;38.65;152863.34;5093359;28;20302;-63
2022/12/29 11:08:26;;;;;;;5.90;5.50;;;;;;;27.43;37.99;152941.41;5093484;28;20275;-64
2022/12/29 11:11:01;;;;;;;5.90;5.60;;;;;;;27.42;38.10;152938.84;5093811;28;20564;-63
2022/12/29 11:13:29;;;;;;;6.20;5.70;;;;;;;28.17;37.33;153128.34;5093306;28;20184;-64
2022/12/29 11:15:56;;;;;;;7.32;6.68;;;;;;;28.51;37.04;153215.41;5093758;28;20184;-64
2022/12/29 11:18:25;;;;;;;6.20;5.90;;;;;;;28.04;37.04;153095.03;5092327;28;20192;-64
2022/12/29 11:20:55;;;;;;;6.93;6.13;;;;;;;28.13;37.18;153118.13;5093352;28;20223;-63
2022/12/29 11:23:27;;;;;;;6.55;6.15;;;;;;;28.35;36.55;153174.41;5093347;28;20187;-65
2022/12/29 11:26:16;;;;;;;6.38;6.07;;;;;;;27.54;37.46;152968.34;5093319;28;20219;-63
2022/12/29 11:28:44;;;;;;;6.53;6.22;;;;;;;27.84;36.89;153043.84;5092957;28;20717;-64
2022/12/29 11:31:16;;;;;;;6.15;5.75;;;;;;;27.23;37.69;152891.53;5093112;28;20180;-64
2022/12/29 11:33:43;;;;;;;6.78;6.15;;;;;;;26.33;39.07;152662.53;5093015;28;20188;-64
2022/12/29 11:36:17;;;;;;;10.77;7.03;;;;;;;25.90;40.06;152553.81;5093066;28;20194;-64
2022/12/29 11:38:52;;;;;;;7.60;6.00;;;;;;;23.93;43.17;152055.53;5092797;28;20660;-64
2022/12/29 11:41:28;;;;;;;6.38;6.00;;;;;;;22.55;46.60;151707.09;5091314;28;20237;-65
2022/12/29 11:43:58;;;;;;;6.63;5.88;;;;;;;21.43;50.56;151426.56;5092659;28;20640;-65
2022/12/29 11:46:28;;;;;;;6.72;6.28;;;;;;;20.32;55.93;151146.31;5093110;28;20211;-65
2022/12/29 11:48:58;;;;;;;6.93;6.07;;;;;;;19.34;62.04;150899.25;5092881;28;20192;-64
2022/12/29 11:51:29;;;;;;;12.40;7.93;;;;;;;18.47;72.70;150680.38;5093333;28;20192;-64
2022/12/29 11:53:59;;;;;;;8.07;7.67;;;;;;;17.63;81.69;150468.06;5093017;28;20187;-64
2022/12/29 11:56:37;;;;;;;8.13;7.43;;;;;;;17.14;84.09;150344.78;5092879;28;20603;-64
2022/12/29 11:59:36;;;;;;;8.17;7.57;;;;;;;16.68;93.37;150230.44;5092343;28;20188;-64
2022/12/29 12:02:23;;;;;;;16.63;8.07;;;;;;;15.97;99.24;150051.38;5092484;28;20279;-64